createdAt,value
2023-03-04T00:00:07.965Z,18.10
2023-03-04T00:02:37.841Z,18.10
2023-03-04T00:05:08.108Z,18.10
2023-03-04T00:07:35.989Z,18.10
2023-03-04T00:10:04.037Z,18.20
2023-03-04T00:12:31.900Z,18.20
2023-03-04T00:14:59.708Z,18.10
2023-03-04T00:17:29.913Z,18.10
2023-03-04T00:19:57.968Z,18.10
2023-03-04T00:22:27.135Z,18.10
2023-03-04T00:24:54.938Z,18.20
2023-03-04T00:27:22.733Z,18.20
2023-03-04T00:29:50.521Z,18.30
2023-03-04T00:32:18.568Z,17.60
2023-03-04T00:34:46.347Z,16.90
2023-03-04T00:37:14.159Z,16.50
2023-03-04T00:39:43.260Z,16.00
2023-03-04T00:42:11.051Z,15.80
2023-03-04T00:44:39.783Z,15.70
2023-03-04T00:47:07.682Z,15.50
2023-03-04T00:49:35.479Z,15.40
2023-03-04T00:52:03.433Z,15.30
2023-03-04T00:54:31.251Z,15.30
2023-03-04T00:57:00.418Z,15.20
2023-03-04T00:59:28.215Z,15.20
2023-03-04T01:01:56.044Z,15.20
2023-03-04T01:04:23.824Z,15.30
2023-03-04T01:06:51.625Z,15.20
2023-03-04T01:09:19.466Z,15.10
2023-03-04T01:11:47.239Z,15.10
2023-03-04T01:14:16.365Z,15.00
2023-03-04T01:16:44.220Z,14.70
2023-03-04T01:19:12.534Z,14.70
2023-03-04T01:21:40.338Z,14.50
2023-03-04T01:24:08.268Z,14.50
2023-03-04T01:26:36.216Z,14.40
2023-03-04T01:29:04.315Z,14.30
2023-03-04T01:31:33.525Z,14.40
2023-03-04T01:34:01.416Z,14.50
2023-03-04T01:36:29.607Z,14.60
2023-03-04T01:38:57.455Z,14.70
2023-03-04T01:41:27.684Z,14.70
2023-03-04T01:43:57.389Z,14.80
2023-03-04T01:46:25.546Z,14.70
2023-03-04T01:48:54.797Z,14.60
2023-03-04T01:51:22.874Z,14.70
2023-03-04T01:53:53.200Z,14.80
2023-03-04T01:56:25.143Z,14.80
2023-03-04T01:59:10.954Z,14.80
2023-03-04T02:01:39.794Z,14.70
2023-03-04T02:04:09.496Z,14.60
2023-03-04T02:06:38.906Z,14.80
2023-03-04T02:09:07.808Z,14.70
2023-03-04T02:11:36.850Z,14.60
2023-03-04T02:14:05.564Z,14.40
2023-03-04T02:16:33.673Z,14.60
2023-03-04T02:19:02.052Z,14.60
2023-03-04T02:21:34.710Z,14.40
2023-03-04T02:24:11.970Z,14.60
2023-03-04T02:26:43.436Z,14.60
2023-03-04T02:29:14.449Z,14.60
2023-03-04T02:31:44.036Z,14.70
2023-03-04T02:34:15.132Z,14.70
2023-03-04T02:36:44.576Z,14.70
2023-03-04T02:39:14.672Z,14.70
2023-03-04T02:41:44.641Z,14.60
2023-03-04T02:44:19.113Z,14.20
2023-03-04T02:46:47.751Z,14.40
2023-03-04T02:49:15.946Z,14.30
2023-03-04T02:51:43.746Z,14.20
2023-03-04T02:54:16.927Z,14.30
2023-03-04T02:56:51.166Z,14.50
2023-03-04T02:59:20.649Z,14.20
2023-03-04T03:01:48.537Z,14.40
2023-03-04T03:04:16.970Z,14.00
2023-03-04T03:06:45.852Z,14.20
2023-03-04T03:09:13.749Z,14.10
2023-03-04T03:11:41.553Z,14.10
2023-03-04T03:14:11.613Z,14.10
2023-03-04T03:16:39.758Z,13.90
2023-03-04T03:19:07.665Z,14.10
2023-03-04T03:21:36.988Z,14.30
2023-03-04T03:24:05.619Z,14.30
2023-03-04T03:26:33.471Z,14.40
2023-03-04T03:29:01.260Z,14.40
2023-03-04T03:31:31.120Z,14.20
2023-03-04T03:33:58.998Z,14.30
2023-03-04T03:36:28.331Z,14.40
2023-03-04T03:38:56.198Z,14.50
2023-03-04T03:41:23.961Z,14.50
2023-03-04T03:43:51.726Z,14.40
2023-03-04T03:46:19.502Z,14.40
2023-03-04T03:48:48.634Z,14.00
2023-03-04T03:51:16.590Z,14.20
2023-03-04T03:53:44.412Z,14.20
2023-03-04T03:56:12.341Z,14.00
2023-03-04T03:58:40.160Z,14.20
2023-03-04T04:01:09.178Z,14.10
2023-03-04T04:03:37.116Z,14.10
2023-03-04T04:06:06.799Z,14.30
2023-03-04T04:08:34.782Z,14.40
2023-03-04T04:11:02.617Z,14.40
2023-03-04T04:13:30.392Z,14.20
2023-03-04T04:15:59.428Z,14.20
2023-03-04T04:18:27.718Z,14.40
2023-03-04T04:20:55.598Z,14.30
2023-03-04T04:23:24.914Z,14.40
2023-03-04T04:25:52.710Z,14.40
2023-03-04T04:28:20.482Z,14.40
2023-03-04T04:30:48.426Z,14.30
2023-03-04T04:33:16.310Z,14.10
2023-03-04T04:35:44.712Z,14.20
2023-03-04T04:38:12.562Z,14.20
2023-03-04T04:40:42.906Z,14.30
2023-03-04T04:43:10.731Z,14.30
2023-03-04T04:45:38.537Z,14.20
2023-03-04T04:48:06.676Z,14.30
2023-03-04T04:50:34.511Z,14.20
2023-03-04T04:53:02.440Z,14.20
2023-03-04T04:55:30.203Z,14.20
2023-03-04T04:57:59.508Z,14.30
2023-03-04T05:00:27.812Z,14.30
2023-03-04T05:02:55.643Z,14.30
2023-03-04T05:05:23.410Z,14.10
2023-03-04T05:07:51.220Z,14.30
2023-03-04T05:10:19.086Z,14.00
2023-03-04T05:12:46.964Z,14.20
2023-03-04T05:15:16.272Z,14.40
2023-03-04T05:17:44.038Z,14.50
2023-03-04T05:20:12.689Z,14.30
2023-03-04T05:22:40.644Z,14.40
2023-03-04T05:25:08.903Z,14.30
2023-03-04T05:27:36.688Z,14.40
2023-03-04T05:30:04.964Z,14.20
2023-03-04T05:32:34.157Z,14.30
2023-03-04T05:35:02.000Z,14.20
2023-03-04T05:37:29.767Z,14.30
2023-03-04T05:39:57.565Z,14.20
2023-03-04T05:42:25.355Z,14.30
2023-03-04T05:44:53.151Z,14.10
2023-03-04T05:47:20.927Z,14.10
2023-03-04T05:49:52.169Z,14.00
2023-03-04T05:52:19.983Z,14.20
2023-03-04T05:54:47.751Z,14.20
2023-03-04T05:57:15.559Z,13.90
2023-03-04T05:59:43.439Z,14.10
2023-03-04T06:02:11.279Z,13.90
2023-03-04T06:04:39.073Z,14.00
2023-03-04T06:07:08.257Z,14.10
2023-03-04T06:09:36.072Z,14.10
2023-03-04T06:12:03.931Z,14.20
2023-03-04T06:14:31.763Z,14.20
2023-03-04T06:16:59.552Z,13.90
2023-03-04T06:19:27.466Z,13.80
2023-03-04T06:21:55.306Z,14.00
2023-03-04T06:24:24.495Z,14.00
2023-03-04T06:26:52.297Z,14.00
2023-03-04T06:29:20.359Z,13.90
2023-03-04T06:31:48.238Z,14.00
2023-03-04T06:34:16.080Z,14.20
2023-03-04T06:36:43.971Z,14.30
2023-03-04T06:39:12.175Z,14.40
2023-03-04T06:41:41.371Z,14.40
2023-03-04T06:44:09.186Z,14.60
2023-03-04T06:46:37.229Z,14.50
2023-03-04T06:49:05.141Z,14.60
2023-03-04T06:51:32.987Z,14.50
2023-03-04T06:54:00.806Z,14.60
2023-03-04T06:56:28.657Z,14.60
2023-03-04T06:58:57.823Z,14.30
2023-03-04T07:01:27.264Z,14.30
2023-03-04T07:03:56.779Z,14.00
2023-03-04T07:06:27.344Z,14.20
2023-03-04T07:08:55.401Z,14.30
2023-03-04T07:11:24.645Z,14.40
2023-03-04T07:13:52.651Z,14.80
2023-03-04T07:16:23.341Z,14.70
2023-03-04T07:18:51.345Z,14.70
2023-03-04T07:21:19.913Z,14.70
2023-03-04T07:23:47.808Z,14.40
2023-03-04T07:26:15.859Z,14.20
2023-03-04T07:28:44.039Z,14.60
2023-03-04T07:31:13.970Z,14.70
2023-03-04T07:33:43.315Z,15.00
2023-03-04T07:36:11.182Z,15.00
2023-03-04T07:38:38.955Z,14.70
2023-03-04T07:41:06.787Z,14.90
2023-03-04T07:43:34.596Z,14.90
2023-03-04T07:46:03.060Z,14.80
2023-03-04T07:48:31.081Z,14.70
2023-03-04T07:51:24.962Z,15.00
2023-03-04T07:53:54.213Z,14.70
2023-03-04T07:56:24.407Z,14.90
2023-03-04T07:58:53.513Z,14.50
2023-03-04T08:01:23.821Z,14.60
2023-03-04T08:03:52.083Z,14.70
2023-03-04T08:06:22.477Z,14.50
2023-03-04T08:08:51.062Z,14.80
2023-03-04T08:11:22.221Z,14.80
2023-03-04T08:13:50.556Z,15.00
2023-03-04T08:16:20.164Z,15.00
2023-03-04T08:18:49.846Z,14.90
2023-03-04T08:21:19.679Z,14.70
2023-03-04T08:23:49.511Z,14.60
2023-03-04T08:26:19.938Z,14.50
2023-03-04T08:28:48.144Z,14.30
2023-03-04T08:31:18.503Z,14.10
2023-03-04T08:33:46.875Z,14.30
2023-03-04T08:36:15.234Z,14.40
2023-03-04T08:38:43.462Z,14.80
2023-03-04T08:41:13.485Z,14.80
2023-03-04T08:43:41.333Z,14.80
2023-03-04T08:46:09.624Z,14.70
2023-03-04T08:48:38.803Z,14.80
2023-03-04T08:51:09.917Z,14.80
2023-03-04T08:53:38.439Z,14.80
2023-03-04T08:56:13.012Z,14.90
2023-03-04T08:58:45.645Z,14.60
2023-03-04T09:01:14.729Z,14.80
2023-03-04T09:03:43.510Z,14.90
2023-03-04T09:06:14.514Z,14.80
2023-03-04T09:08:42.665Z,14.60
2023-03-04T09:11:10.817Z,14.60
2023-03-04T09:13:38.659Z,14.60
2023-03-04T09:16:12.034Z,14.80
2023-03-04T09:18:40.114Z,15.00
2023-03-04T09:21:08.820Z,15.20
2023-03-04T09:23:36.830Z,15.30
2023-03-04T09:26:15.224Z,15.30
2023-03-04T09:28:43.008Z,15.20
2023-03-04T09:31:15.882Z,15.20
2023-03-04T09:33:43.727Z,15.10
2023-03-04T09:36:12.079Z,15.20
2023-03-04T09:38:40.815Z,15.20
2023-03-04T09:41:10.130Z,15.30
2023-03-04T09:43:40.511Z,15.30
2023-03-04T09:46:13.429Z,15.30
2023-03-04T09:48:47.576Z,15.30
2023-03-04T09:51:24.370Z,15.50
2023-03-04T09:54:07.393Z,15.50
2023-03-04T09:56:37.443Z,15.50
2023-03-04T09:59:12.526Z,15.50
2023-03-04T10:01:46.926Z,15.70
2023-03-04T10:04:21.386Z,15.60
2023-03-04T10:06:54.306Z,15.50
2023-03-04T10:09:25.630Z,15.30
2023-03-04T10:12:01.567Z,15.20
2023-03-04T10:14:36.472Z,15.40
2023-03-04T10:17:09.760Z,15.20
2023-03-04T10:19:55.269Z,15.20
2023-03-04T10:22:29.791Z,15.50
2023-03-04T10:24:59.566Z,15.40
2023-03-04T10:27:30.005Z,15.30
2023-03-04T10:30:01.253Z,15.30
2023-03-04T10:32:29.199Z,15.30
2023-03-04T10:34:58.344Z,15.50
2023-03-04T10:37:43.689Z,15.60
2023-03-04T10:40:20.812Z,15.80
2023-03-04T10:42:50.324Z,15.90
2023-03-04T10:45:23.268Z,15.80
2023-03-04T10:47:55.166Z,15.40
2023-03-04T10:50:26.833Z,15.20
2023-03-04T10:52:55.821Z,15.00
2023-03-04T10:55:26.752Z,14.50
2023-03-04T10:57:58.067Z,14.30
2023-03-04T11:00:32.204Z,14.90
2023-03-04T11:03:28.726Z,15.50
2023-03-04T11:06:17.572Z,16.20
2023-03-04T11:08:47.438Z,17.10
2023-03-04T11:11:34.673Z,17.60
2023-03-04T11:14:07.377Z,17.90
2023-03-04T11:16:35.371Z,18.10
2023-03-04T11:19:07.402Z,18.30
2023-03-04T11:21:40.578Z,18.30
2023-03-04T11:24:27.507Z,18.50
2023-03-04T11:26:59.986Z,18.50
2023-03-04T11:29:31.365Z,18.60
2023-03-04T11:32:03.987Z,18.70
2023-03-04T11:34:38.469Z,18.70
2023-03-04T11:37:13.230Z,18.80
2023-03-04T11:39:47.241Z,18.80
2023-03-04T11:42:25.845Z,18.70
2023-03-04T11:44:53.817Z,18.70
2023-03-04T11:47:40.214Z,18.80
2023-03-04T11:50:23.197Z,18.80
2023-03-04T11:53:16.266Z,18.80
2023-03-04T11:55:49.600Z,18.80
2023-03-04T11:58:39.122Z,18.80
2023-03-04T12:01:10.500Z,18.80
2023-03-04T12:03:55.678Z,18.80
2023-03-04T12:06:33.617Z,18.90
2023-03-04T12:09:40.810Z,18.90
2023-03-04T12:12:27.134Z,18.90
2023-03-04T12:15:06.828Z,19.00
2023-03-04T12:17:53.888Z,19.00
2023-03-04T12:20:57.508Z,19.00
2023-03-04T12:23:45.199Z,19.00
2023-03-04T12:26:38.643Z,19.10
2023-03-04T12:29:14.317Z,19.10
2023-03-04T12:31:44.463Z,19.20
2023-03-04T12:34:34.853Z,19.20
2023-03-04T12:37:18.000Z,19.10
2023-03-04T12:39:59.849Z,19.00
2023-03-04T12:42:37.925Z,19.00
2023-03-04T12:45:18.202Z,19.00
2023-03-04T12:47:55.899Z,19.00
2023-03-04T12:50:38.922Z,18.90
2023-03-04T12:53:18.398Z,19.00
2023-03-04T12:55:47.957Z,19.00
2023-03-04T12:58:25.198Z,18.90
2023-03-04T13:01:00.343Z,18.90
2023-03-04T13:03:38.056Z,18.90
2023-03-04T13:06:13.524Z,19.00
2023-03-04T13:08:54.857Z,19.00
2023-03-04T13:11:54.837Z,19.10
2023-03-04T13:14:32.912Z,19.10
2023-03-04T13:17:03.331Z,19.00
2023-03-04T13:19:49.181Z,19.00
2023-03-04T13:22:46.041Z,19.00
2023-03-04T13:25:40.774Z,19.00
2023-03-04T13:28:23.258Z,19.10
2023-03-04T13:31:18.330Z,19.10
2023-03-04T13:34:05.522Z,19.10
2023-03-04T13:36:56.156Z,19.20
2023-03-04T13:39:27.849Z,19.20
2023-03-04T13:41:56.585Z,19.20
2023-03-04T13:44:55.981Z,19.20
2023-03-04T13:47:32.620Z,19.20
2023-03-04T13:50:23.976Z,19.10
2023-03-04T13:52:52.726Z,19.10
2023-03-04T13:55:39.165Z,19.10
2023-03-04T13:58:21.428Z,19.20
2023-03-04T14:00:53.774Z,19.20
2023-03-04T14:03:26.554Z,19.20
2023-03-04T14:06:16.856Z,19.20
2023-03-04T14:08:44.774Z,19.20
2023-03-04T14:11:18.121Z,19.20
2023-03-04T14:13:46.074Z,19.30
2023-03-04T14:16:19.923Z,19.20
2023-03-04T14:18:58.390Z,19.20
2023-03-04T14:21:27.311Z,19.20
2023-03-04T14:24:06.755Z,19.20
2023-03-04T14:26:35.008Z,19.20
2023-03-04T14:29:03.846Z,19.20
2023-03-04T14:31:35.720Z,19.20
2023-03-04T14:34:05.604Z,19.30
2023-03-04T14:36:35.342Z,19.30
2023-03-04T14:39:07.032Z,19.40
2023-03-04T14:41:37.783Z,19.40
2023-03-04T14:44:10.697Z,19.40
2023-03-04T14:46:41.513Z,19.40
2023-03-04T14:49:14.035Z,19.30
2023-03-04T14:51:49.699Z,19.40
2023-03-04T14:54:33.734Z,19.40
2023-03-04T14:57:03.297Z,19.40
2023-03-04T14:59:33.067Z,19.50
2023-03-04T15:02:31.378Z,19.50
2023-03-04T15:05:16.424Z,19.50
2023-03-04T15:07:45.037Z,19.50
2023-03-04T15:10:13.631Z,19.50
2023-03-04T15:12:41.573Z,19.40
2023-03-04T15:15:35.259Z,19.40
2023-03-04T15:18:04.910Z,19.30
2023-03-04T15:20:34.368Z,19.40
2023-03-04T15:23:08.309Z,19.30
2023-03-04T15:25:36.600Z,19.40
2023-03-04T15:28:04.853Z,19.30
2023-03-04T15:30:35.282Z,19.30
2023-03-04T15:33:03.169Z,19.30
2023-03-04T15:35:33.464Z,19.30
2023-03-04T15:38:03.220Z,19.40
2023-03-04T15:40:33.698Z,19.40
2023-03-04T15:43:04.669Z,19.30
2023-03-04T15:45:36.170Z,19.30
2023-03-04T15:48:07.955Z,19.30
2023-03-04T15:50:37.848Z,19.40
2023-03-04T15:53:10.604Z,19.40
2023-03-04T15:55:38.565Z,19.40
2023-03-04T15:58:07.438Z,19.40
2023-03-04T16:00:35.295Z,19.50
2023-03-04T16:03:03.072Z,19.50
2023-03-04T16:05:39.781Z,19.50
2023-03-04T16:08:12.632Z,19.50
2023-03-04T16:10:40.560Z,19.50
2023-03-04T16:13:14.648Z,19.40
2023-03-04T16:15:43.149Z,19.40
2023-03-04T16:18:14.367Z,19.30
2023-03-04T16:20:45.696Z,19.30
2023-03-04T16:23:18.636Z,19.30
2023-03-04T16:25:48.104Z,19.30
2023-03-04T16:28:16.213Z,19.30
2023-03-04T16:30:44.485Z,19.30
2023-03-04T16:33:12.475Z,19.30
2023-03-04T16:35:40.704Z,19.30
2023-03-04T16:38:19.008Z,19.30
2023-03-04T16:40:46.823Z,19.20
2023-03-04T16:43:15.058Z,19.20
2023-03-04T16:45:43.225Z,19.20
2023-03-04T16:48:11.122Z,19.20
2023-03-04T16:50:40.374Z,19.10
2023-03-04T16:53:23.968Z,19.20
2023-03-04T16:55:52.036Z,19.30
2023-03-04T16:58:19.932Z,19.30
2023-03-04T17:00:47.721Z,19.30
2023-03-04T17:03:15.497Z,19.30
2023-03-04T17:05:44.250Z,19.20
2023-03-04T17:08:12.053Z,19.00
2023-03-04T17:10:41.297Z,19.00
2023-03-04T17:13:09.595Z,19.10
2023-03-04T17:15:37.801Z,19.10
2023-03-04T17:18:05.719Z,19.10
2023-03-04T17:20:33.602Z,19.20
2023-03-04T17:23:01.524Z,19.20
2023-03-04T17:25:29.335Z,19.20
2023-03-04T17:27:58.441Z,19.20
2023-03-04T17:30:28.596Z,19.20
2023-03-04T17:32:56.397Z,19.20
2023-03-04T17:35:25.570Z,19.10
2023-03-04T17:37:53.427Z,19.10
2023-03-04T17:40:21.396Z,19.10
2023-03-04T17:42:49.192Z,19.10
2023-03-04T17:45:18.538Z,19.20
2023-03-04T17:47:46.407Z,19.10
2023-03-04T17:50:14.198Z,19.10
2023-03-04T17:52:42.087Z,19.00
2023-03-04T17:55:11.093Z,19.10
2023-03-04T17:57:39.201Z,19.00
2023-03-04T18:00:08.165Z,19.00
2023-03-04T18:02:37.327Z,19.00
2023-03-04T18:05:07.367Z,19.00
2023-03-04T18:07:35.276Z,19.10
2023-03-04T18:10:03.073Z,19.10
2023-03-04T18:12:31.045Z,19.00
2023-03-04T18:14:58.845Z,19.00
2023-03-04T18:17:26.816Z,19.10
2023-03-04T18:19:56.652Z,19.10
2023-03-04T18:22:24.492Z,19.10
2023-03-04T18:24:52.286Z,19.10
2023-03-04T18:27:20.112Z,19.20
2023-03-04T18:29:47.936Z,19.20
2023-03-04T18:32:15.792Z,19.20
2023-03-04T18:34:43.659Z,19.20
2023-03-04T18:37:12.905Z,19.20
2023-03-04T18:39:40.818Z,19.20
2023-03-04T18:42:08.652Z,19.20
2023-03-04T18:44:36.428Z,19.20
2023-03-04T18:47:04.426Z,19.10
2023-03-04T18:49:32.314Z,19.20
2023-03-04T18:52:00.101Z,19.10
2023-03-04T18:54:29.236Z,19.10
2023-03-04T18:56:59.338Z,19.10
2023-03-04T18:59:32.483Z,19.10
2023-03-04T19:02:03.679Z,19.20
2023-03-04T19:04:32.391Z,19.20
2023-03-04T19:07:00.251Z,19.20
2023-03-04T19:09:29.446Z,19.30
2023-03-04T19:11:57.208Z,19.20
2023-03-04T19:14:25.027Z,19.20
2023-03-04T19:16:52.860Z,19.20
2023-03-04T19:19:20.683Z,19.20
2023-03-04T19:21:48.453Z,19.20
2023-03-04T19:24:16.412Z,19.20
2023-03-04T19:26:45.541Z,19.30
2023-03-04T19:29:13.542Z,19.30
2023-03-04T19:31:41.736Z,19.20
2023-03-04T19:34:09.800Z,19.30
2023-03-04T19:36:37.671Z,19.30
2023-03-04T19:39:05.752Z,19.20
2023-03-04T19:41:33.616Z,19.20
2023-03-04T19:44:02.740Z,19.20
2023-03-04T19:46:31.339Z,19.20
2023-03-04T19:48:59.176Z,19.10
2023-03-04T19:51:28.951Z,19.10
2023-03-04T19:53:57.121Z,19.10
2023-03-04T19:56:25.058Z,19.10
2023-03-04T19:58:54.910Z,19.10
2023-03-04T20:01:28.181Z,19.10
2023-03-04T20:03:56.506Z,19.10
2023-03-04T20:06:26.641Z,19.10
2023-03-04T20:08:56.209Z,19.10
2023-03-04T20:11:24.104Z,18.30
2023-03-04T20:13:51.958Z,17.30
2023-03-04T20:16:19.748Z,16.90
2023-03-04T20:18:48.881Z,16.30
2023-03-04T20:21:16.933Z,16.10
2023-03-04T20:23:44.721Z,16.00
2023-03-04T20:26:12.752Z,15.80
2023-03-04T20:28:50.419Z,15.80
2023-03-04T20:31:21.407Z,15.90
2023-03-04T20:33:51.919Z,15.80
2023-03-04T20:36:21.704Z,15.60
2023-03-04T20:38:57.974Z,15.50
2023-03-04T20:41:29.558Z,15.60
2023-03-04T20:43:57.391Z,15.40
2023-03-04T20:46:30.370Z,15.50
2023-03-04T20:49:02.324Z,15.50
2023-03-04T20:51:31.161Z,15.50
2023-03-04T20:53:59.386Z,15.40
2023-03-04T20:56:28.284Z,15.30
2023-03-04T20:58:57.769Z,15.40
2023-03-04T21:01:26.499Z,15.50
2023-03-04T21:03:54.384Z,15.00
2023-03-04T21:06:24.987Z,15.30
2023-03-04T21:08:53.165Z,15.30
2023-03-04T21:11:23.294Z,15.40
2023-03-04T21:13:55.867Z,15.50
2023-03-04T21:16:26.144Z,15.20
2023-03-04T21:18:54.300Z,15.00
2023-03-04T21:21:25.508Z,15.10
2023-03-04T21:23:55.539Z,15.20
2023-03-04T21:26:23.891Z,15.20
2023-03-04T21:28:52.447Z,15.20
2023-03-04T21:31:23.260Z,15.20
2023-03-04T21:33:52.537Z,15.30
2023-03-04T21:36:20.381Z,15.30
2023-03-04T21:38:49.884Z,15.10
2023-03-04T21:41:20.351Z,15.00
2023-03-04T21:43:48.397Z,15.00
2023-03-04T21:46:17.878Z,14.90
2023-03-04T21:48:47.662Z,15.00
2023-03-04T21:51:17.744Z,15.00
2023-03-04T21:53:45.552Z,15.10
2023-03-04T21:56:15.475Z,15.20
2023-03-04T21:58:43.251Z,15.00
2023-03-04T22:01:11.616Z,15.00
2023-03-04T22:03:40.013Z,15.00
2023-03-04T22:06:10.239Z,14.90
2023-03-04T22:08:39.310Z,15.00
2023-03-04T22:11:08.583Z,14.70
2023-03-04T22:13:38.423Z,14.90
2023-03-04T22:16:07.272Z,15.00
2023-03-04T22:18:35.288Z,15.00
2023-03-04T22:21:05.147Z,14.70
2023-03-04T22:23:33.439Z,14.70
2023-03-04T22:26:04.257Z,14.80
2023-03-04T22:28:32.866Z,14.70
2023-03-04T22:31:02.746Z,14.80
2023-03-04T22:33:36.953Z,14.70
2023-03-04T22:36:07.125Z,14.80
2023-03-04T22:38:35.009Z,14.80
2023-03-04T22:41:02.919Z,14.90
2023-03-04T22:43:31.149Z,15.10
2023-03-04T22:46:00.080Z,14.40
2023-03-04T22:48:29.376Z,14.60
2023-03-04T22:50:57.271Z,14.70
2023-03-04T22:53:26.183Z,14.30
2023-03-04T22:55:58.662Z,14.50
2023-03-04T22:58:26.521Z,14.60
2023-03-04T23:00:54.306Z,14.30
2023-03-04T23:03:22.151Z,14.20
2023-03-04T23:06:00.557Z,13.90
2023-03-04T23:08:28.344Z,14.40
2023-03-04T23:10:56.313Z,14.40
2023-03-04T23:13:24.219Z,14.20
2023-03-04T23:15:52.145Z,14.10
2023-03-04T23:18:20.091Z,14.50
2023-03-04T23:20:47.885Z,14.30
2023-03-04T23:23:17.063Z,14.20
2023-03-04T23:25:46.148Z,14.50
2023-03-04T23:28:14.028Z,14.30
2023-03-04T23:30:41.916Z,14.20
2023-03-04T23:33:09.741Z,14.40
2023-03-04T23:35:37.644Z,14.50
2023-03-04T23:38:05.441Z,14.50
2023-03-04T23:40:34.587Z,14.60
2023-03-04T23:43:02.477Z,14.50
2023-03-04T23:45:30.269Z,14.30
2023-03-04T23:47:58.046Z,14.50
2023-03-04T23:50:26.048Z,14.60
2023-03-04T23:52:53.839Z,14.30
2023-03-04T23:55:22.202Z,14.30
2023-03-04T23:57:51.303Z,14.20
